Time;durP1;ratioP1;P1;durP2;ratioP2;P2;SDS_P1;SDS_P2;PMS_P1;PMS_P2;Temp;Humidity;BMP_temperature;BMP_pressure;BME280_temperature;BME280_humidity;BME280_pressure;Samples;Min_cycle;Max_cycle;Signal;HPM_P1;HPM_P2
2023/05/09 03:18:28;;;;;;;7.18;2.53;;;15.80;99.90;;;;;;6248845;22;87495;-70
2023/05/09 03:20:54;;;;;;;5.10;2.55;;;15.80;99.90;;;;;;6250544;22;87802;-70
2023/05/09 03:23:20;;;;;;;7.30;2.42;;;15.70;99.90;;;;;;6249848;22;87146;-69
2023/05/09 03:25:48;;;;;;;3.38;1.73;;;15.80;99.90;;;;;;6249922;22;88038;-69
2023/05/09 03:28:14;;;;;;;3.90;1.92;;;15.80;99.90;;;;;;6249872;22;87317;-69
2023/05/09 03:30:40;;;;;;;3.30;1.95;;;15.90;99.90;;;;;;6250343;22;87305;-69
2023/05/09 03:33:06;;;;;;;5.82;1.95;;;15.90;99.90;;;;;;6250680;22;87307;-69
2023/05/09 03:35:32;;;;;;;8.13;3.08;;;15.90;99.90;;;;;;6248899;22;88432;-69
2023/05/09 03:37:58;;;;;;;5.28;2.33;;;15.90;99.90;;;;;;6249586;22;88621;-70
2023/05/09 03:40:23;;;;;;;5.18;1.90;;;15.90;99.90;;;;;;6250844;22;87265;-69
2023/05/09 03:42:49;;;;;;;5.10;2.00;;;15.90;99.90;;;;;;6249572;22;87117;-69
2023/05/09 03:45:15;;;;;;;5.50;1.50;;;15.80;99.90;;;;;;6250206;22;88169;-69
2023/05/09 03:47:40;;;;;;;5.13;1.50;;;15.80;99.90;;;;;;6222718;22;88347;-69
2023/05/09 03:50:07;;;;;;;5.80;1.80;;;15.80;99.90;;;;;;6250230;22;87486;-69
2023/05/09 03:52:32;;;;;;;5.78;1.88;;;15.80;99.90;;;;;;6250888;22;86662;-69
2023/05/09 03:54:58;;;;;;;4.82;1.90;;;15.80;99.90;;;;;;6249380;22;88504;-69
2023/05/09 03:57:24;;;;;;;3.53;1.90;;;15.80;99.90;;;;;;6249900;22;87880;-69
2023/05/09 03:59:50;;;;;;;3.67;1.92;;;15.80;99.90;;;;;;6247654;22;88269;-69
2023/05/09 04:02:16;;;;;;;5.63;2.95;;;15.70;99.90;;;;;;6247387;22;86995;-69
2023/05/09 04:04:41;;;;;;;4.95;2.33;;;15.70;99.90;;;;;;6250084;22;88511;-69
2023/05/09 04:07:07;;;;;;;6.93;2.42;;;15.70;99.90;;;;;;6248572;22;87716;-69
2023/05/09 04:09:33;;;;;;;5.22;2.42;;;15.60;99.90;;;;;;6248762;22;87553;-69
2023/05/09 04:11:59;;;;;;;7.22;2.45;;;15.60;99.90;;;;;;6249031;22;87430;-70
2023/05/09 04:14:24;;;;;;;3.50;2.05;;;15.70;99.90;;;;;;6246518;22;87760;-69
2023/05/09 04:16:50;;;;;;;5.38;2.45;;;15.70;99.90;;;;;;6259273;22;87988;-69
2023/05/09 04:19:16;;;;;;;4.70;2.08;;;15.70;99.90;;;;;;6280325;22;87520;-69
2023/05/09 04:21:41;;;;;;;3.75;2.33;;;15.70;99.90;;;;;;6280724;22;86979;-69
2023/05/09 04:24:07;;;;;;;4.88;2.30;;;15.70;99.90;;;;;;6279906;22;88511;-69
2023/05/09 04:26:36;;;;;;;6.95;2.80;;;15.70;99.90;;;;;;6252523;22;89911;-69
2023/05/09 04:29:03;;;;;;;4.82;2.22;;;15.70;99.90;;;;;;6281101;22;86972;-69
2023/05/09 04:31:29;;;;;;;4.53;2.20;;;15.70;99.90;;;;;;6281300;22;87363;-69
2023/05/09 04:33:57;;;;;;;6.45;2.22;;;15.80;99.90;;;;;;6280301;22;88095;-69
2023/05/09 04:36:22;;;;;;;4.15;2.38;;;15.80;99.90;;;;;;6279933;22;87314;-69
2023/05/09 04:38:48;;;;;;;5.57;2.70;;;15.90;99.90;;;;;;6279082;22;87648;-69
2023/05/09 04:41:15;;;;;;;8.05;2.88;;;15.90;99.90;;;;;;6282246;22;86616;-69
2023/05/09 04:43:42;;;;;;;5.78;2.67;;;16.00;99.90;;;;;;6280439;22;87969;-70
2023/05/09 04:46:07;;;;;;;9.50;2.75;;;16.00;99.90;;;;;;6280928;22;87700;-70
2023/05/09 04:48:34;;;;;;;4.95;2.50;;;16.10;99.90;;;;;;6248422;22;88411;-70
2023/05/09 04:51:00;;;;;;;5.50;2.88;;;16.20;99.90;;;;;;6280971;22;87080;-69
2023/05/09 04:53:27;;;;;;;5.22;2.30;;;16.30;99.90;;;;;;6277302;22;87595;-69
2023/05/09 04:55:53;;;;;;;3.50;2.00;;;16.40;99.90;;;;;;6277677;22;87972;-69
2023/05/09 04:58:19;;;;;;;5.28;2.63;;;16.40;99.90;;;;;;6279066;22;87360;-69
2023/05/09 05:00:45;;;;;;;6.10;2.95;;;16.40;99.90;;;;;;6274897;22;87267;-69
2023/05/09 05:03:11;;;;;;;5.97;2.80;;;16.50;99.90;;;;;;6269992;22;87508;-69
2023/05/09 05:05:39;;;;;;;5.55;2.92;;;16.40;99.90;;;;;;6275186;22;86977;-69
2023/05/09 05:08:05;;;;;;;5.63;2.50;;;16.50;99.90;;;;;;6275356;22;87189;-69
2023/05/09 05:10:30;;;;;;;5.90;2.63;;;16.50;99.90;;;;;;6279264;22;86988;-69
2023/05/09 05:12:56;;;;;;;6.53;3.75;;;16.60;99.90;;;;;;6274747;22;89044;-69
2023/05/09 05:15:22;;;;;;;7.45;3.13;;;16.60;99.90;;;;;;6277738;22;88889;-69
2023/05/09 05:17:47;;;;;;;8.82;3.78;;;16.60;99.90;;;;;;6279105;22;87336;-69
2023/05/09 05:20:13;;;;;;;5.78;2.50;;;16.60;99.90;;;;;;6278794;22;87140;-69
2023/05/09 05:22:39;;;;;;;4.53;1.92;;;16.60;99.90;;;;;;6279471;22;87934;-69
2023/05/09 05:25:05;;;;;;;5.22;2.30;;;16.60;99.90;;;;;;6280027;22;88050;-69
2023/05/09 05:27:31;;;;;;;5.05;2.85;;;16.60;99.90;;;;;;6279194;22;87709;-68
2023/05/09 05:29:56;;;;;;;6.57;2.45;;;16.60;99.90;;;;;;6279101;22;86586;-68
2023/05/09 05:32:22;;;;;;;6.47;2.03;;;16.60;99.90;;;;;;6279187;22;89026;-69
2023/05/09 05:34:48;;;;;;;4.85;2.08;;;16.60;99.90;;;;;;6278774;22;87369;-68
2023/05/09 05:37:13;;;;;;;6.07;1.80;;;16.60;99.90;;;;;;6278480;22;89269;-68
2023/05/09 05:39:39;;;;;;;4.90;1.60;;;16.50;99.90;;;;;;6279578;22;87736;-68
2023/05/09 05:42:05;;;;;;;4.50;1.35;;;16.50;99.90;;;;;;6279883;22;87530;-68
2023/05/09 05:44:30;;;;;;;5.65;1.33;;;16.50;99.90;;;;;;6278747;22;87678;-69
2023/05/09 05:46:56;;;;;;;4.70;1.33;;;16.60;99.90;;;;;;6253257;22;86928;-69
2023/05/09 05:49:23;;;;;;;2.38;1.35;;;16.70;99.90;;;;;;6280985;22;87260;-69
2023/05/09 05:51:50;;;;;;;6.45;1.40;;;16.80;99.90;;;;;;6279557;22;88013;-69
2023/05/09 05:54:16;;;;;;;2.25;1.00;;;16.90;99.90;;;;;;6280210;22;87805;-69
2023/05/09 05:56:41;;;;;;;5.07;1.38;;;17.00;99.90;;;;;;6280112;22;87175;-69
2023/05/09 05:59:07;;;;;;;6.45;1.23;;;17.10;98.80;;;;;;6281232;22;87423;-69
2023/05/09 06:01:33;;;;;;;5.78;1.10;;;17.20;99.00;;;;;;6279449;22;89130;-68
2023/05/09 06:03:58;;;;;;;4.18;1.38;;;17.30;98.60;;;;;;6279360;22;88576;-68
2023/05/09 06:06:26;;;;;;;3.80;1.13;;;17.40;98.10;;;;;;6280786;22;87364;-68
2023/05/09 06:08:51;;;;;;;7.68;0.80;;;17.40;97.50;;;;;;6281831;22;87309;-68
2023/05/09 06:11:17;;;;;;;2.75;0.90;;;17.40;96.60;;;;;;6281430;22;88153;-69
2023/05/09 06:13:43;;;;;;;3.55;0.82;;;17.50;96.50;;;;;;6280988;22;87288;-68
2023/05/09 06:16:10;;;;;;;4.43;1.60;;;17.50;95.30;;;;;;6281171;22;87394;-69
2023/05/09 06:18:36;;;;;;;4.72;0.73;;;17.50;95.90;;;;;;6281611;22;86944;-69
2023/05/09 06:21:06;;;;;;;7.65;1.02;;;17.60;95.40;;;;;;6281261;22;88079;-68
2023/05/09 06:23:31;;;;;;;5.28;1.10;;;17.60;95.90;;;;;;6281207;22;87398;-69
2023/05/09 06:25:57;;;;;;;6.22;1.20;;;17.60;94.80;;;;;;6253644;22;87964;-69
2023/05/09 06:28:23;;;;;;;2.60;1.13;;;17.70;94.90;;;;;;6254415;22;87341;-69
2023/05/09 06:30:49;;;;;;;4.18;1.42;;;17.80;94.60;;;;;;6281096;22;87675;-69
2023/05/09 06:33:14;;;;;;;3.47;1.35;;;17.90;94.30;;;;;;6281525;22;87964;-69
2023/05/09 06:35:40;;;;;;;3.85;2.03;;;18.10;94.10;;;;;;6281198;22;87040;-69
2023/05/09 06:38:06;;;;;;;3.33;1.88;;;18.10;92.90;;;;;;6281451;22;87359;-68
2023/05/09 06:40:31;;;;;;;6.30;1.70;;;18.20;93.00;;;;;;6281892;22;88125;-69
2023/05/09 06:42:57;;;;;;;2.65;1.42;;;18.30;92.80;;;;;;6281793;22;87276;-69
2023/05/09 06:45:23;;;;;;;5.72;1.50;;;18.50;92.40;;;;;;6280895;22;87289;-69
2023/05/09 06:47:48;;;;;;;5.50;1.27;;;18.70;92.10;;;;;;6281741;22;87294;-69
2023/05/09 06:50:14;;;;;;;7.32;1.17;;;18.90;91.20;;;;;;6280056;22;89446;-69
2023/05/09 06:52:40;;;;;;;2.95;1.10;;;19.00;90.60;;;;;;6281531;22;88561;-68
2023/05/09 06:55:06;;;;;;;2.85;1.10;;;19.00;90.50;;;;;;6281147;22;87096;-69
2023/05/09 06:57:32;;;;;;;6.25;1.23;;;19.10;90.40;;;;;;6282097;22;87264;-69
2023/05/09 06:59:58;;;;;;;3.40;1.00;;;19.20;89.10;;;;;;6281292;22;87673;-69
2023/05/09 07:02:23;;;;;;;6.63;1.60;;;19.40;89.80;;;;;;6281646;22;87483;-69
2023/05/09 07:04:49;;;;;;;3.13;1.10;;;19.60;89.00;;;;;;6281417;22;87428;-69
2023/05/09 07:07:15;;;;;;;8.48;3.20;;;19.80;89.20;;;;;;6282320;22;86661;-69
2023/05/09 07:09:40;;;;;;;7.85;3.67;;;19.70;89.80;;;;;;6280756;22;87707;-69
2023/05/09 07:12:06;;;;;;;8.38;3.70;;;19.70;89.60;;;;;;6281062;22;87343;-68
2023/05/09 07:14:32;;;;;;;10.90;4.30;;;19.90;90.20;;;;;;6253333;22;88054;-68
2023/05/09 07:16:57;;;;;;;6.85;3.85;;;20.00;89.30;;;;;;6280954;22;87296;-69
2023/05/09 07:19:23;;;;;;;9.20;5.07;;;20.30;89.00;;;;;;6281079;22;87457;-69
2023/05/09 07:21:49;;;;;;;8.35;3.40;;;20.60;88.00;;;;;;6280681;22;87242;-68
2023/05/09 07:24:15;;;;;;;8.55;3.65;;;20.50;88.10;;;;;;6280920;22;87215;-69
2023/05/09 07:26:40;;;;;;;5.78;3.35;;;20.50;88.50;;;;;;6281998;22;87197;-69
2023/05/09 07:29:06;;;;;;;7.00;4.13;;;20.60;88.80;;;;;;6280330;22;87961;-69
2023/05/09 07:31:32;;;;;;;7.35;4.30;;;20.60;86.30;;;;;;6281847;22;86828;-68
2023/05/09 07:33:57;;;;;;;10.55;4.15;;;20.70;86.40;;;;;;6281304;22;87220;-69
2023/05/09 07:36:23;;;;;;;10.32;4.32;;;20.80;86.60;;;;;;6281567;22;87054;-69
2023/05/09 07:38:52;;;;;;;6.15;3.90;;;20.80;86.50;;;;;;6280393;22;88640;-68
2023/05/09 07:41:18;;;;;;;9.68;5.25;;;21.00;86.40;;;;;;6280849;22;87982;-69
2023/05/09 07:43:44;;;;;;;6.03;4.25;;;21.10;84.90;;;;;;6281483;22;87312;-69
2023/05/09 07:46:09;;;;;;;6.68;3.67;;;21.10;85.10;;;;;;6281141;22;87322;-69
2023/05/09 07:48:35;;;;;;;5.93;3.53;;;21.10;85.10;;;;;;6280727;22;88966;-69
2023/05/09 07:51:01;;;;;;;5.90;3.88;;;21.20;84.80;;;;;;6281204;22;88063;-69
2023/05/09 07:53:27;;;;;;;7.72;3.85;;;21.20;83.90;;;;;;6280818;22;87217;-69
2023/05/09 07:55:52;;;;;;;8.25;4.32;;;21.10;83.80;;;;;;6281949;22;87476;-69
2023/05/09 07:58:18;;;;;;;7.35;4.90;;;21.20;82.80;;;;;;6280198;22;87954;-69
2023/05/09 08:00:44;;;;;;;8.27;4.00;;;21.20;82.70;;;;;;6280268;22;87420;-69
2023/05/09 08:03:09;;;;;;;7.63;4.00;;;21.20;82.80;;;;;;6280507;22;88480;-69
2023/05/09 08:05:35;;;;;;;8.02;4.68;;;21.10;82.20;;;;;;6281826;22;86928;-69
2023/05/09 08:08:01;;;;;;;7.93;4.70;;;21.10;83.50;;;;;;6280808;22;88019;-69
2023/05/09 08:10:29;;;;;;;8.32;4.30;;;21.10;83.10;;;;;;6279700;22;87275;-69
2023/05/09 08:12:55;;;;;;;9.65;4.50;;;21.00;83.60;;;;;;6281526;22;87414;-69
2023/05/09 08:15:21;;;;;;;6.90;4.95;;;21.00;83.10;;;;;;6281704;22;87446;-69
2023/05/09 08:17:47;;;;;;;7.68;5.40;;;21.20;83.00;;;;;;6280350;22;88018;-69
2023/05/09 08:20:12;;;;;;;6.47;3.92;;;21.40;83.10;;;;;;6280860;22;87650;-69
2023/05/09 08:22:41;;;;;;;5.32;3.60;;;21.50;82.60;;;;;;6281323;22;87345;-69
2023/05/09 08:25:07;;;;;;;6.57;4.10;;;21.50;82.70;;;;;;6281558;22;87452;-69
2023/05/09 08:27:33;;;;;;;8.00;4.20;;;21.50;81.60;;;;;;6279809;22;88406;-69
2023/05/09 08:29:59;;;;;;;8.85;4.80;;;21.60;80.90;;;;;;6280554;22;88822;-69
2023/05/09 08:32:25;;;;;;;6.60;4.32;;;21.50;80.60;;;;;;6281019;22;87003;-69
2023/05/09 08:34:51;;;;;;;7.18;4.20;;;21.50;80.50;;;;;;6280881;22;87130;-69
2023/05/09 08:37:16;;;;;;;7.50;5.00;;;21.70;81.80;;;;;;6281051;22;88041;-69
2023/05/09 08:39:42;;;;;;;6.05;4.68;;;21.90;80.50;;;;;;6280110;22;87649;-69
2023/05/09 08:42:09;;;;;;;6.18;4.40;;;22.30;80.10;;;;;;6281271;22;87304;-69
2023/05/09 08:44:35;;;;;;;6.07;4.47;;;22.70;78.70;;;;;;6281755;22;86347;-69
2023/05/09 08:47:02;;;;;;;6.22;4.32;;;23.40;76.20;;;;;;6280777;22;87836;-69
2023/05/09 08:49:28;;;;;;;6.82;4.70;;;24.40;72.90;;;;;;6280410;22;88186;-69
2023/05/09 08:51:55;;;;;;;6.35;4.28;;;25.10;69.50;;;;;;6280672;22;88212;-70
2023/05/09 08:54:22;;;;;;;7.28;4.22;;;27.30;67.50;;;;;;6281336;22;87489;-70
2023/05/09 08:56:48;;;;;;;6.07;4.38;;;29.60;60.70;;;;;;6280088;22;86966;-70
2023/05/09 08:59:16;;;;;;;6.15;4.82;;;31.40;58.50;;;;;;6279897;22;87399;-71
2023/05/09 09:01:42;;;;;;;6.18;4.22;;;33.30;52.30;;;;;;6281022;22;87299;-71
2023/05/09 09:04:10;;;;;;;5.10;4.35;;;34.50;49.30;;;;;;6281070;22;87420;-71
2023/05/09 09:06:37;;;;;;;6.32;4.63;;;35.40;48.60;;;;;;6280692;22;88115;-71
2023/05/09 09:09:05;;;;;;;6.55;4.78;;;36.20;46.30;;;;;;6280779;22;87906;-71
2023/05/09 09:11:33;;;;;;;5.25;3.72;;;37.40;45.70;;;;;;6280937;22;87330;-69
2023/05/09 09:14:01;;;;;;;5.20;4.20;;;37.00;44.00;;;;;;6280544;22;87331;-71
2023/05/09 09:16:28;;;;;;;5.70;3.80;;;36.40;42.70;;;;;;6279467;22;88502;-71
2023/05/09 09:18:55;;;;;;;6.25;4.38;;;34.80;44.10;;;;;;6280037;22;88762;-70
2023/05/09 09:21:22;;;;;;;8.02;5.20;;;33.30;45.80;;;;;;6280315;22;87498;-70
2023/05/09 09:23:49;;;;;;;6.20;3.88;;;32.10;47.20;;;;;;6252262;22;87426;-70
2023/05/09 09:26:15;;;;;;;6.07;4.57;;;31.80;48.90;;;;;;6280015;22;88753;-70
2023/05/09 09:28:41;;;;;;;6.13;5.05;;;32.20;48.90;;;;;;6252318;22;89161;-71
2023/05/09 09:31:24;;;;;;;6.00;5.10;;;33.60;47.00;;;;;;6281235;22;86975;-71
2023/05/09 09:33:50;;;;;;;5.32;4.07;;;35.30;44.60;;;;;;6281141;22;86463;-71
2023/05/09 09:36:25;;;;;;;6.35;4.15;;;36.20;42.50;;;;;;6280495;22;87454;-71
2023/05/09 09:38:57;;;;;;;5.90;5.32;;;35.40;42.40;;;;;;6279442;22;87642;-71
2023/05/09 09:41:38;;;;;;;5.00;4.43;;;35.60;44.20;;;;;;6279862;22;88243;-71
2023/05/09 09:44:07;;;;;;;;;;;36.80;43.20;;;;;;6280804;22;87654;-71
2023/05/09 09:46:53;;;;;;;5.57;4.25;;;38.10;42.40;;;;;;6281752;22;88044;-71
2023/05/09 09:49:24;;;;;;;6.75;4.00;;;38.00;40.20;;;;;;6279943;22;87474;-71
2023/05/09 09:51:55;;;;;;;4.95;4.50;;;36.10;41.90;;;;;;6281035;22;87520;-70
2023/05/09 09:54:21;;;;;;;6.28;5.65;;;34.70;43.70;;;;;;6280590;22;87134;-71
2023/05/09 09:56:53;;;;;;;7.32;6.40;;;35.30;43.20;;;;;;6279945;22;87967;-71
2023/05/09 09:59:21;;;;;;;5.20;3.65;;;36.40;41.50;;;;;;6280455;22;87319;-71
2023/05/09 10:02:02;;;;;;;4.80;3.20;;;36.00;42.70;;;;;;6280600;22;87418;-70
2023/05/09 10:04:35;;;;;;;6.03;3.63;;;34.20;44.30;;;;;;6279415;22;87577;-71
2023/05/09 10:07:03;;;;;;;3.67;3.10;;;33.70;43.80;;;;;;6279344;22;88460;-70
2023/05/09 10:09:30;;;;;;;6.93;2.80;;;33.20;45.00;;;;;;6279584;22;88683;-70
2023/05/09 10:11:58;;;;;;;3.05;2.28;;;32.80;48.00;;;;;;6280501;22;87282;-70
2023/05/09 10:14:25;;;;;;;3.75;2.13;;;32.30;46.40;;;;;;6281605;22;87471;-70
2023/05/09 10:16:55;;;;;;;3.00;2.00;;;31.30;49.60;;;;;;6278884;22;88072;-70
2023/05/09 10:19:22;;;;;;;4.50;2.30;;;30.30;49.10;;;;;;6278077;22;87881;-70
2023/05/09 10:21:53;;;;;;;3.20;2.20;;;29.70;50.20;;;;;;6278160;22;87354;-70
2023/05/09 10:24:37;;;;;;;3.30;3.00;;;29.00;52.50;;;;;;6279533;22;86489;-70
2023/05/09 10:27:08;;;;;;;3.60;1.75;;;28.60;54.70;;;;;;6278384;22;87972;-70
2023/05/09 10:29:47;;;;;;;3.17;2.10;;;28.30;52.90;;;;;;6275902;22;87751;-70
2023/05/09 10:33:01;;;;;;;2.05;1.13;;;27.90;53.70;;;;;;6277728;22;88515;-69
2023/05/09 10:35:29;;;;;;;;;;;27.60;52.60;;;;;;6251779;22;87317;-70
2023/05/09 10:37:56;;;;;;;5.20;0.85;;;27.20;53.40;;;;;;6280316;22;88104;-69
2023/05/09 10:40:22;;;;;;;2.25;1.33;;;26.70;56.00;;;;;;6277994;22;87242;-69
2023/05/09 10:42:48;;;;;;;1.70;0.63;;;26.60;55.20;;;;;;6250777;22;87263;-69
2023/05/09 10:45:14;;;;;;;2.83;1.40;;;26.40;55.40;;;;;;6277728;22;87355;-69
2023/05/09 10:47:42;;;;;;;1.45;0.70;;;26.50;57.40;;;;;;6276224;22;88005;-70
2023/05/09 10:50:09;;;;;;;2.72;0.63;;;26.40;58.00;;;;;;6276748;22;87003;-69
2023/05/09 10:53:05;;;;;;;2.47;1.55;;;26.40;56.30;;;;;;6278019;22;87298;-70
2023/05/09 10:56:00;;;;;;;5.47;0.73;;;26.40;55.50;;;;;;6277451;22;87046;-69
2023/05/09 10:58:35;;;;;;;3.15;0.50;;;26.40;55.30;;;;;;6272991;22;89008;-69
2023/05/09 11:01:04;;;;;;;2.58;0.52;;;26.10;58.30;;;;;;6278146;22;88782;-70
2023/05/09 11:03:52;;;;;;;2.17;0.43;;;26.00;56.80;;;;;;6250096;22;87360;-69
2023/05/09 11:06:48;;;;;;;3.20;0.35;;;25.90;56.90;;;;;;6276777;22;87223;-69
2023/05/09 11:09:35;;;;;;;0.65;0.32;;;25.80;58.50;;;;;;6277410;22;88581;-69
2023/05/09 11:12:04;;;;;;;1.60;0.60;;;26.00;58.50;;;;;;6278376;22;86904;-70
2023/05/09 11:14:48;;;;;;;1.63;0.93;;;26.20;57.50;;;;;;6275861;22;87425;-69
2023/05/09 11:17:20;;;;;;;1.45;0.68;;;26.30;59.00;;;;;;6275969;22;86704;-70
2023/05/09 11:19:46;;;;;;;4.18;1.05;;;26.20;56.00;;;;;;6274407;22;87450;-69
2023/05/09 11:22:26;;;;;;;1.08;0.28;;;26.10;59.20;;;;;;6278360;22;88227;-70
2023/05/09 11:25:13;;;;;;;1.25;0.50;;;26.00;57.20;;;;;;6276555;22;88156;-70
2023/05/09 11:27:43;;;;;;;1.83;0.60;;;26.00;57.80;;;;;;6278629;22;87249;-70
2023/05/09 11:30:17;;;;;;;2.35;0.50;;;26.00;58.90;;;;;;6280543;22;88232;-70
2023/05/09 11:32:50;;;;;;;2.35;0.60;;;26.10;56.60;;;;;;6281198;22;87285;-71
2023/05/09 11:35:19;;;;;;;2.45;0.20;;;26.10;59.70;;;;;;6280788;22;87309;-70
2023/05/09 11:37:46;;;;;;;1.40;0.40;;;26.10;55.80;;;;;;6280966;22;87184;-71
2023/05/09 11:40:14;;;;;;;1.15;0.20;;;26.10;57.30;;;;;;6281034;22;87566;-71
2023/05/09 11:42:45;;;;;;;1.58;0.65;;;25.90;56.30;;;;;;6280552;22;87221;-70
2023/05/09 11:45:12;;;;;;;0.98;0.43;;;25.70;56.00;;;;;;6280742;22;87643;-70
2023/05/09 11:47:38;;;;;;;1.17;0.52;;;25.70;58.00;;;;;;6281613;22;87027;-70
2023/05/09 11:50:11;;;;;;;1.30;0.43;;;25.80;56.60;;;;;;6280541;22;88263;-70
2023/05/09 11:52:38;;;;;;;1.52;0.43;;;25.70;59.10;;;;;;6281006;22;88654;-71
2023/05/09 11:55:10;;;;;;;1.50;0.43;;;25.70;58.00;;;;;;6281191;22;87471;-70
2023/05/09 11:57:40;;;;;;;2.55;0.40;;;25.80;57.50;;;;;;6281656;22;87687;-69
2023/05/09 12:00:08;;;;;;;1.80;0.80;;;25.80;57.30;;;;;;6280402;22;87603;-70
2023/05/09 12:02:34;;;;;;;1.75;1.15;;;25.60;57.40;;;;;;6280261;22;87756;-70
2023/05/09 12:05:08;;;;;;;1.33;0.50;;;25.60;56.90;;;;;;6280746;22;87271;-69
2023/05/09 12:07:35;;;;;;;2.72;0.60;;;25.70;58.70;;;;;;6282019;22;86420;-69
2023/05/09 12:10:03;;;;;;;3.10;0.90;;;25.70;58.10;;;;;;6280755;22;87533;-70
2023/05/09 12:12:32;;;;;;;3.78;0.90;;;25.70;59.90;;;;;;6280618;22;87754;-70
2023/05/09 12:15:02;;;;;;;3.45;0.98;;;25.60;58.50;;;;;;6279505;22;90251;-69
2023/05/09 12:17:29;;;;;;;6.05;1.48;;;25.50;60.20;;;;;;6280894;22;87375;-69
2023/05/09 12:19:57;;;;;;;2.67;0.95;;;25.50;59.50;;;;;;6280599;22;87536;-69
2023/05/09 12:22:22;;;;;;;3.65;0.77;;;25.40;59.90;;;;;;6280858;22;87275;-69
2023/05/09 12:24:48;;;;;;;1.98;0.90;;;25.40;60.50;;;;;;6281509;22;87436;-71
2023/05/09 12:27:14;;;;;;;2.38;0.75;;;25.30;59.60;;;;;;6281531;22;87207;-71
2023/05/09 12:29:44;;;;;;;3.05;0.93;;;25.50;59.00;;;;;;6281039;22;88245;-71
2023/05/09 12:32:11;;;;;;;1.60;0.60;;;25.50;58.20;;;;;;6280868;22;88428;-71
2023/05/09 12:34:37;;;;;;;1.50;0.98;;;25.50;58.10;;;;;;6280848;22;87331;-71
2023/05/09 12:37:04;;;;;;;3.30;0.63;;;25.40;58.50;;;;;;6280294;22;87574;-69
2023/05/09 12:39:30;;;;;;;1.30;0.55;;;25.60;58.80;;;;;;6278204;22;89436;-70
2023/05/09 12:41:56;;;;;;;1.63;0.57;;;25.60;58.10;;;;;;6278383;22;88291;-71
2023/05/09 12:44:24;;;;;;;2.75;0.57;;;25.70;58.10;;;;;;6278460;22;87233;-70
2023/05/09 12:47:03;;;;;;;3.40;0.65;;;25.60;57.50;;;;;;6279025;22;87545;-71
2023/05/09 12:49:30;;;;;;;1.40;0.55;;;25.60;59.10;;;;;;6277955;22;88359;-70
2023/05/09 12:51:58;;;;;;;1.85;1.13;;;25.60;57.70;;;;;;6278522;22;87590;-70
2023/05/09 12:54:27;;;;;;;1.38;0.60;;;25.60;57.20;;;;;;6278422;22;87372;-70
2023/05/09 12:56:55;;;;;;;1.35;0.43;;;25.40;57.60;;;;;;6276534;22;86623;-70
2023/05/09 12:59:27;;;;;;;1.38;0.38;;;25.50;57.50;;;;;;6277683;22;87484;-71
2023/05/09 13:01:55;;;;;;;1.90;0.22;;;25.40;57.20;;;;;;6278337;22;87648;-71
2023/05/09 13:04:21;;;;;;;4.28;0.95;;;25.50;56.30;;;;;;6277544;22;88424;-70
2023/05/09 13:06:49;;;;;;;0.85;0.38;;;25.70;57.40;;;;;;6278723;22;88250;-71
2023/05/09 13:09:15;;;;;;;1.30;0.40;;;25.80;56.70;;;;;;6278231;22;88142;-71
2023/05/09 13:11:41;;;;;;;0.80;0.45;;;25.80;56.10;;;;;;6278641;22;87540;-71
2023/05/09 13:14:08;;;;;;;3.40;0.47;;;26.00;57.00;;;;;;6278141;22;87520;-71
2023/05/09 13:16:34;;;;;;;0.98;0.32;;;26.00;57.10;;;;;;6278431;22;87366;-70
2023/05/09 13:19:04;;;;;;;1.55;1.10;;;25.90;55.90;;;;;;6278594;22;87957;-70
2023/05/09 13:21:30;;;;;;;2.47;0.40;;;26.00;55.30;;;;;;6278021;22;88259;-70
2023/05/09 13:23:56;;;;;;;1.83;1.15;;;26.00;54.70;;;;;;6278471;22;87277;-71
2023/05/09 13:26:22;;;;;;;0.90;0.57;;;25.90;54.50;;;;;;6278765;22;87272;-70
2023/05/09 13:28:47;;;;;;;3.28;0.28;;;25.80;55.00;;;;;;6278161;22;89027;-71
2023/05/09 13:31:13;;;;;;;1.90;0.32;;;25.80;53.40;;;;;;6277482;22;88969;-71
2023/05/09 13:33:39;;;;;;;1.95;0.43;;;25.70;53.70;;;;;;6277790;22;88085;-71
2023/05/09 13:36:05;;;;;;;0.90;0.35;;;25.70;54.90;;;;;;6278502;22;87008;-71
2023/05/09 13:38:35;;;;;;;0.60;0.20;;;25.50;54.10;;;;;;6278228;22;88013;-71
2023/05/09 13:41:01;;;;;;;1.35;0.22;;;25.40;55.90;;;;;;6278089;22;88070;-70
2023/05/09 13:43:26;;;;;;;2.70;0.22;;;25.30;55.00;;;;;;6278424;22;87169;-71
2023/05/09 13:45:52;;;;;;;0.98;0.20;;;25.30;55.40;;;;;;6279028;22;86636;-70
2023/05/09 13:48:18;;;;;;;0.68;0.25;;;25.40;54.50;;;;;;6280169;22;88007;-70
2023/05/09 13:50:44;;;;;;;1.77;0.73;;;25.20;54.60;;;;;;6279857;22;87307;-70
2023/05/09 13:53:10;;;;;;;1.00;0.65;;;25.10;55.40;;;;;;6280221;22;88284;-70
2023/05/09 13:55:35;;;;;;;1.02;0.50;;;25.20;54.70;;;;;;6280316;22;86983;-71
2023/05/09 13:58:01;;;;;;;0.73;0.32;;;25.20;53.80;;;;;;6279863;22;87688;-70
2023/05/09 14:00:27;;;;;;;0.95;0.38;;;25.30;53.50;;;;;;6279853;22;88205;-70
2023/05/09 14:02:52;;;;;;;0.90;0.30;;;25.60;54.30;;;;;;6280621;22;88497;-71
2023/05/09 14:05:18;;;;;;;2.25;0.40;;;25.50;54.10;;;;;;6279932;22;87445;-71
2023/05/09 14:07:44;;;;;;;1.48;0.20;;;25.60;53.80;;;;;;6279381;22;87576;-71
2023/05/09 14:10:11;;;;;;;0.60;0.30;;;25.70;52.30;;;;;;6279168;22;87101;-70
2023/05/09 14:12:38;;;;;;;0.68;0.32;;;25.60;52.80;;;;;;6278332;22;87439;-71
2023/05/09 14:15:08;;;;;;;1.55;0.28;;;25.50;52.10;;;;;;6278190;22;87551;-71
2023/05/09 14:17:33;;;;;;;0.70;0.30;;;25.50;52.40;;;;;;6276098;22;88998;-70
2023/05/09 14:19:59;;;;;;;0.98;0.32;;;25.50;53.30;;;;;;6274895;22;88661;-70
2023/05/09 14:22:25;;;;;;;1.10;0.40;;;25.50;53.70;;;;;;6278089;22;87306;-71
2023/05/09 14:24:51;;;;;;;1.10;0.20;;;25.50;53.00;;;;;;6278062;22;87299;-70
2023/05/09 14:27:17;;;;;;;2.28;0.45;;;25.50;53.00;;;;;;6278520;22;87313;-71
2023/05/09 14:29:43;;;;;;;1.48;0.63;;;25.50;54.20;;;;;;6279195;22;87261;-70
2023/05/09 14:32:11;;;;;;;3.30;0.40;;;25.50;54.00;;;;;;6278823;22;87020;-70
2023/05/09 14:34:38;;;;;;;1.27;0.47;;;25.60;54.10;;;;;;6279858;22;86850;-70
2023/05/09 14:37:05;;;;;;;1.55;0.32;;;25.40;54.20;;;;;;6279127;22;87547;-71
2023/05/09 14:39:31;;;;;;;1.10;0.30;;;25.40;54.60;;;;;;6278850;22;87157;-70
2023/05/09 14:41:56;;;;;;;1.15;0.30;;;25.40;55.00;;;;;;6279059;22;88312;-70
2023/05/09 14:44:23;;;;;;;0.77;0.22;;;25.40;54.00;;;;;;6279120;22;87157;-71
2023/05/09 14:46:49;;;;;;;3.33;0.20;;;25.40;54.40;;;;;;6278635;22;87473;-70
2023/05/09 14:49:15;;;;;;;4.70;0.43;;;25.40;54.70;;;;;;6279118;22;87320;-70
2023/05/09 14:51:41;;;;;;;2.65;0.22;;;25.40;54.60;;;;;;6279427;22;87288;-70
2023/05/09 14:54:07;;;;;;;1.27;0.20;;;25.40;54.50;;;;;;6279527;22;87140;-70
2023/05/09 14:56:32;;;;;;;2.13;0.75;;;25.40;54.70;;;;;;6251162;22;89445;-70
2023/05/09 14:58:58;;;;;;;1.67;0.45;;;25.30;54.60;;;;;;6278908;22;88142;-71
2023/05/09 15:01:24;;;;;;;4.07;0.20;;;25.30;54.20;;;;;;6280504;22;87441;-70
2023/05/09 15:03:50;;;;;;;2.65;0.70;;;25.30;54.50;;;;;;6281862;22;87629;-71
2023/05/09 15:06:16;;;;;;;1.60;0.40;;;25.20;55.00;;;;;;6280543;22;88246;-71
2023/05/09 15:08:41;;;;;;;2.97;0.50;;;25.20;55.00;;;;;;6280475;22;89268;-70
2023/05/09 15:11:07;;;;;;;1.50;0.30;;;25.20;53.70;;;;;;6281815;22;87538;-70
2023/05/09 15:13:33;;;;;;;0.80;0.20;;;25.20;53.10;;;;;;6281785;22;87286;-71
2023/05/09 15:15:58;;;;;;;0.65;0.28;;;25.10;53.60;;;;;;6280751;22;87466;-71
2023/05/09 15:18:27;;;;;;;1.02;0.28;;;25.10;53.80;;;;;;6280098;22;88094;-71
2023/05/09 15:20:54;;;;;;;2.72;0.30;;;25.20;54.20;;;;;;6281394;22;87227;-70
2023/05/09 15:23:19;;;;;;;1.40;0.73;;;25.10;54.20;;;;;;6281701;22;86462;-70
2023/05/09 15:25:45;;;;;;;4.25;0.70;;;25.00;54.60;;;;;;6280804;22;87612;-70
2023/05/09 15:28:11;;;;;;;4.40;0.20;;;25.00;54.20;;;;;;6280985;22;87202;-70
2023/05/09 15:30:39;;;;;;;1.55;0.32;;;25.10;53.50;;;;;;6279363;22;88675;-71
2023/05/09 15:33:06;;;;;;;2.67;0.30;;;25.10;51.80;;;;;;6281609;22;87308;-70
2023/05/09 15:35:32;;;;;;;0.70;0.20;;;24.80;52.60;;;;;;6280758;22;87952;-70
2023/05/09 15:37:58;;;;;;;1.30;0.40;;;24.70;53.00;;;;;;6280821;22;87774;-70
2023/05/09 15:40:23;;;;;;;0.75;0.40;;;24.80;54.20;;;;;;6281233;22;87332;-70
2023/05/09 15:42:49;;;;;;;1.10;0.32;;;24.80;53.30;;;;;;6280849;22;87445;-70
2023/05/09 15:45:15;;;;;;;1.02;0.40;;;24.60;52.70;;;;;;6275748;22;88110;-70
2023/05/09 15:47:41;;;;;;;3.63;0.50;;;24.50;53.30;;;;;;6277438;22;87724;-70
2023/05/09 15:50:07;;;;;;;1.92;0.20;;;24.40;54.00;;;;;;6278691;22;87359;-70
2023/05/09 15:52:33;;;;;;;1.48;0.40;;;24.50;54.00;;;;;;6279726;22;87826;-70
2023/05/09 15:54:59;;;;;;;2.22;0.52;;;24.50;54.20;;;;;;6277993;22;89538;-70
2023/05/09 15:57:25;;;;;;;1.85;0.28;;;24.40;54.40;;;;;;6278360;22;88419;-70
2023/05/09 15:59:54;;;;;;;1.20;0.25;;;24.30;54.70;;;;;;6278541;22;87050;-69
2023/05/09 16:02:20;;;;;;;4.68;0.32;;;24.30;55.70;;;;;;6276297;22;87615;-70
2023/05/09 16:04:46;;;;;;;1.38;0.20;;;24.20;54.80;;;;;;6278857;22;88028;-70
2023/05/09 16:07:12;;;;;;;3.13;0.32;;;24.10;54.70;;;;;;6278595;22;87784;-70